Time;durP1;ratioP1;P1;durP2;ratioP2;P2;SDS_P1;SDS_P2;PMS_P1;PMS_P2;Temp;Humidity;BMP_temperature;BMP_pressure;BME280_temperature;BME280_humidity;BME280_pressure;Samples;Min_cycle;Max_cycle;Signal;HPM_P1;HPM_P2
2022/06/26 00:02:42;;;;;;;8.23;6.00;;;;;;;18.46;68.20;99102.34;8440008;28;20499;-80
2022/06/26 00:06:44;;;;;;;13.05;5.82;;;;;;;18.40;68.17;99101.09;8438598;28;20109;-80
2022/06/26 00:10:47;;;;;;;15.98;6.72;;;;;;;18.40;68.11;99106.56;8439486;28;20135;-79
2022/06/26 00:14:49;;;;;;;12.07;6.45;;;;;;;18.39;68.32;99104.97;8421251;28;20135;-80
2022/06/26 00:18:49;;;;;;;8.13;6.25;;;;;;;18.39;68.42;99104.97;8442551;28;20036;-80
2022/06/26 00:22:51;;;;;;;8.43;6.10;;;;;;;18.40;68.42;99101.09;8445033;28;20035;-81
2022/06/26 00:26:52;;;;;;;11.13;6.75;;;;;;;18.39;68.16;99094.81;8441200;28;20047;-79
2022/06/26 00:30:53;;;;;;;9.98;6.68;;;;;;;18.39;68.35;99099.50;8440953;28;20052;-79
2022/06/26 00:34:53;;;;;;;9.43;6.78;;;;;;;18.39;68.25;99099.50;8450542;28;20131;-80
2022/06/26 00:38:54;;;;;;;7.95;6.53;;;;;;;18.41;68.11;99105.38;8462531;28;20051;-80
2022/06/26 00:43:15;;;;;;;13.23;6.35;;;;;;;18.40;68.14;99101.09;8464123;28;20052;-80
2022/06/26 00:47:17;;;;;;;9.20;6.82;;;;;;;18.44;67.81;99101.94;8495634;27;20051;-79
2022/06/26 00:51:19;;;;;;;8.02;6.15;;;;;;;18.48;67.46;99102.81;8492551;27;20066;-80
2022/06/26 00:55:21;;;;;;;9.18;5.97;;;;;;;18.53;67.10;99105.25;8494485;27;20074;-80
2022/06/26 00:59:23;;;;;;;10.60;6.07;;;;;;;18.61;66.60;99101.53;8494708;27;20074;-79
2022/06/26 01:03:24;;;;;;;14.35;6.18;;;;;;;18.70;66.27;99104.84;8462574;27;20136;-79
2022/06/26 01:07:25;;;;;;;17.08;5.75;;;;;;;18.79;65.74;99105.38;8489971;27;20079;-79
2022/06/26 01:11:28;;;;;;;8.32;5.80;;;;;;;18.89;65.09;99107.53;8442182;27;20099;-79
2022/06/26 01:15:28;;;;;;;12.35;5.30;;;;;;;19.01;64.56;99108.50;8494787;27;20060;-78
2022/06/26 01:19:30;;;;;;;10.15;4.90;;;;;;;19.10;64.11;99106.31;8465064;28;20468;-79
2022/06/26 01:23:31;;;;;;;12.20;5.45;;;;;;;19.18;63.75;99110.75;8479025;27;20495;-79
2022/06/26 01:27:40;;;;;;;9.27;5.97;;;;;;;19.26;63.03;99101.50;8462922;28;20047;-79
2022/06/26 01:31:41;;;;;;;13.43;6.57;;;;;;;19.33;62.96;99101.63;8462075;28;20043;-80
2022/06/26 01:35:42;;;;;;;14.07;6.00;;;;;;;19.36;62.72;99098.13;8409624;28;20048;-79
2022/06/26 01:39:43;;;;;;;10.85;6.47;;;;;;;19.40;62.61;99093.53;8464176;28;20138;-80
2022/06/26 01:43:44;;;;;;;13.02;6.20;;;;;;;19.43;62.40;99095.53;8456888;28;20058;-80
2022/06/26 01:47:44;;;;;;;11.43;6.10;;;;;;;19.42;62.32;99099.41;8457967;28;20440;-80
2022/06/26 01:51:46;;;;;;;11.23;5.75;;;;;;;19.38;62.49;99090.34;8439135;28;20166;-80
2022/06/26 01:55:47;;;;;;;9.75;6.13;;;;;;;19.35;62.42;99097.34;8450542;28;20074;-80
2022/06/26 01:59:48;;;;;;;8.55;6.28;;;;;;;19.31;62.30;99101.19;8459321;28;20052;-79
2022/06/26 02:03:49;;;;;;;8.48;5.72;;;;;;;19.25;62.45;99102.66;8456459;28;20066;-80
2022/06/26 02:07:50;;;;;;;9.75;6.15;;;;;;;19.19;62.64;99115.09;8443458;28;20463;-80
2022/06/26 02:16:16;;;;;;;12.18;7.25;;;;;;;19.08;63.07;99114.09;8448761;28;20043;-80
2022/06/26 02:20:17;;;;;;;14.43;6.60;;;;;;;19.05;62.83;99114.81;8455379;28;20043;-80
2022/06/26 02:24:18;;;;;;;15.35;6.78;;;;;;;18.96;63.13;99113.13;8459409;28;20044;-80
2022/06/26 02:28:19;;;;;;;11.98;6.63;;;;;;;18.89;63.24;99107.53;8462387;28;20092;-79
2022/06/26 02:32:20;;;;;;;13.73;6.90;;;;;;;18.87;63.36;99118.06;8453642;28;20039;-79
2022/06/26 02:36:21;;;;;;;8.98;6.22;;;;;;;18.84;63.34;99126.97;8462496;28;20046;-79
2022/06/26 02:40:23;;;;;;;13.25;6.55;;;;;;;18.83;63.57;99130.84;8462231;28;20047;-79
2022/06/26 02:44:24;;;;;;;10.95;6.15;;;;;;;18.79;63.72;99124.53;8461858;28;20048;-79
2022/06/26 02:48:25;;;;;;;15.60;6.53;;;;;;;18.78;63.75;99131.16;8455249;28;20059;-79
2022/06/26 02:52:26;;;;;;;14.02;6.80;;;;;;;18.77;63.80;99132.28;8459375;28;20047;-80
2022/06/26 02:56:27;;;;;;;11.45;6.28;;;;;;;18.77;63.95;99131.53;8451371;28;20130;-79
2022/06/26 03:00:28;;;;;;;10.82;6.20;;;;;;;18.78;63.55;99139.34;8459040;28;20411;-80
2022/06/26 03:04:29;;;;;;;21.30;7.28;;;;;;;18.81;63.84;99135.91;8459992;27;20055;-80
2022/06/26 03:08:30;;;;;;;16.65;7.25;;;;;;;18.87;63.97;99145.41;8454318;28;20071;-80
2022/06/26 03:12:31;;;;;;;10.55;7.20;;;;;;;18.89;63.76;99137.63;8446775;28;20085;-78
2022/06/26 03:16:32;;;;;;;12.23;6.85;;;;;;;18.91;63.79;99138.06;8460998;28;20130;-79
2022/06/26 03:20:33;;;;;;;12.73;6.43;;;;;;;18.99;63.98;99145.22;8460508;28;20059;-80
2022/06/26 03:24:34;;;;;;;13.15;6.38;;;;;;;19.05;63.80;99142.19;8454842;28;20137;-79
2022/06/26 03:28:35;;;;;;;10.65;6.70;;;;;;;19.07;63.89;99146.16;8473435;28;20055;-79
2022/06/26 03:32:36;;;;;;;9.70;6.15;;;;;;;19.11;64.08;99148.94;8452978;28;20507;-79
2022/06/26 03:36:37;;;;;;;10.25;7.13;;;;;;;19.16;63.92;99159.59;8457918;28;20044;-79
2022/06/26 03:40:38;;;;;;;17.58;6.82;;;;;;;19.20;63.81;99160.44;8458641;28;20044;-79
2022/06/26 03:44:39;;;;;;;10.02;7.05;;;;;;;19.26;63.98;99159.00;8458848;28;20048;-77
2022/06/26 03:48:40;;;;;;;15.18;6.05;;;;;;;19.35;63.97;99156.81;8460673;28;20086;-78
2022/06/26 03:52:41;;;;;;;11.73;6.72;;;;;;;19.41;63.75;99160.81;8447666;28;20044;-78
2022/06/26 03:56:42;;;;;;;9.82;6.45;;;;;;;19.50;63.77;99160.63;8458442;28;20060;-79
2022/06/26 04:00:43;;;;;;;11.00;6.47;;;;;;;19.58;63.65;99160.34;8459142;28;20040;-81
2022/06/26 04:04:44;;;;;;;19.25;6.80;;;;;;;19.64;63.60;99158.88;8446291;28;20075;-79
2022/06/26 04:08:47;;;;;;;12.52;6.65;;;;;;;19.68;63.83;99170.69;8460300;28;20055;-79
2022/06/26 04:12:48;;;;;;;9.02;6.60;;;;;;;19.74;63.88;99163.75;8466124;28;20411;-80
2022/06/26 04:16:52;;;;;;;11.27;6.40;;;;;;;19.81;63.47;99163.88;8465750;28;20494;-80
2022/06/26 04:20:54;;;;;;;12.45;6.97;;;;;;;19.87;63.41;99171.78;8481109;27;20097;-79
2022/06/26 04:24:55;;;;;;;10.02;7.40;;;;;;;19.90;63.61;99176.50;8458048;28;20486;-78
2022/06/26 04:28:56;;;;;;;11.07;6.90;;;;;;;20.01;63.27;99182.94;8452035;28;20072;-79
2022/06/26 04:32:57;;;;;;;10.23;6.93;;;;;;;20.07;63.24;99186.94;8451203;28;20134;-80
2022/06/26 04:36:57;;;;;;;12.45;6.97;;;;;;;20.15;62.99;99178.44;8465193;28;20093;-82
2022/06/26 04:41:31;;;;;;;12.80;7.07;;;;;;;20.23;62.91;99190.31;8465883;28;20043;-80
2022/06/26 04:45:20;;;;;;;10.13;7.10;;;;;;;20.27;62.79;99196.63;8462946;28;20052;-81
2022/06/26 04:49:21;;;;;;;11.90;6.82;;;;;;;20.35;62.89;99192.88;8458546;28;20067;-81
2022/06/26 04:53:22;;;;;;;13.55;7.10;;;;;;;20.42;62.98;99203.91;8465156;28;20059;-80
2022/06/26 04:57:25;;;;;;;16.98;6.82;;;;;;;20.48;62.75;99207.91;8465040;28;20050;-80
2022/06/26 05:01:26;;;;;;;12.07;7.20;;;;;;;20.57;62.73;99208.44;8451618;28;20456;-81
2022/06/26 05:05:27;;;;;;;11.65;7.25;;;;;;;20.63;62.81;99209.69;8456092;28;20043;-82
2022/06/26 05:09:28;;;;;;;13.18;7.70;;;;;;;20.73;62.58;99212.94;8465741;28;20097;-80
2022/06/26 05:13:32;;;;;;;13.80;6.95;;;;;;;20.82;62.39;99205.22;8464883;28;20181;-80
2022/06/26 05:17:33;;;;;;;14.15;8.38;;;;;;;20.87;62.39;99213.13;8464086;28;20036;-79
2022/06/26 05:21:34;;;;;;;14.25;7.63;;;;;;;20.92;62.46;99221.81;8458558;28;20503;-80
2022/06/26 05:25:36;;;;;;;14.63;7.22;;;;;;;20.99;62.43;99226.59;8439799;28;20058;-80
2022/06/26 05:29:37;;;;;;;16.45;7.30;;;;;;;21.11;62.08;99229.06;8460777;28;20059;-78
2022/06/26 05:33:38;;;;;;;13.13;7.57;;;;;;;21.15;62.27;99235.41;8447144;28;20047;-81
2022/06/26 05:37:39;;;;;;;14.90;8.20;;;;;;;21.27;61.84;99237.91;8463675;28;20128;-80
2022/06/26 05:41:40;;;;;;;14.50;7.82;;;;;;;21.32;62.02;99234.81;8464162;28;20498;-79
2022/06/26 05:45:41;;;;;;;13.95;8.18;;;;;;;21.39;62.49;99234.91;8462413;28;20056;-80
2022/06/26 05:49:42;;;;;;;13.88;7.60;;;;;;;21.46;62.27;99239.69;8464665;27;20048;-81
2022/06/26 05:53:43;;;;;;;10.95;8.20;;;;;;;21.52;62.48;99242.88;8461747;28;20075;-82
2022/06/26 05:57:44;;;;;;;13.70;8.32;;;;;;;21.59;62.67;99243.72;8452576;28;20096;-81
2022/06/26 06:01:45;;;;;;;21.42;8.52;;;;;;;21.67;62.59;99250.09;8446815;28;20047;-81
2022/06/26 06:05:46;;;;;;;20.17;8.50;;;;;;;21.78;62.69;99251.75;8462068;28;20044;-81
2022/06/26 06:09:47;;;;;;;16.40;9.07;;;;;;;21.93;62.63;99258.16;8463593;27;20109;-82
2022/06/26 06:13:48;;;;;;;14.45;8.60;;;;;;;22.07;62.49;99263.81;8460812;28;20052;-80
2022/06/26 06:17:49;;;;;;;15.02;8.05;;;;;;;22.20;62.29;99267.06;8463108;28;20040;-82
2022/06/26 06:21:49;;;;;;;16.55;8.10;;;;;;;22.31;62.03;99268.69;8463130;28;20071;-81
2022/06/26 06:25:51;;;;;;;13.60;7.90;;;;;;;22.50;61.20;99269.59;8462253;28;20047;-79
2022/06/26 06:29:51;;;;;;;18.63;8.63;;;;;;;22.63;61.06;99273.63;8439249;28;20497;-79
2022/06/26 06:33:53;;;;;;;17.95;7.78;;;;;;;22.75;60.71;99287.06;8450361;28;20407;-77
2022/06/26 06:37:53;;;;;;;12.90;7.05;;;;;;;22.80;60.39;99283.94;8462472;28;20157;-80
2022/06/26 06:41:56;;;;;;;14.50;8.15;;;;;;;22.94;60.11;99280.47;8457377;28;20044;-80
2022/06/26 06:45:57;;;;;;;9.48;7.10;;;;;;;23.06;59.48;99280.91;8458383;28;20096;-80
2022/06/26 06:49:58;;;;;;;18.35;7.72;;;;;;;23.15;59.04;99284.13;8460944;28;20593;-79
2022/06/26 06:53:59;;;;;;;16.27;7.75;;;;;;;23.23;58.93;99295.16;8459581;28;20503;-79
2022/06/26 06:58:00;;;;;;;11.73;7.22;;;;;;;23.29;58.38;99288.88;8460471;28;20039;-80
2022/06/26 07:02:01;;;;;;;22.20;7.45;;;;;;;23.45;58.19;99296.78;8448738;28;20064;-81
2022/06/26 07:06:02;;;;;;;14.68;6.85;;;;;;;23.51;57.68;99300.78;8461463;28;20120;-81
2022/06/26 07:10:04;;;;;;;17.27;7.50;;;;;;;23.60;57.68;99306.69;8448336;28;20055;-80
2022/06/26 07:14:06;;;;;;;12.13;6.82;;;;;;;23.76;57.44;99296.09;8460169;28;20043;-79
2022/06/26 07:18:07;;;;;;;18.38;7.18;;;;;;;23.92;56.24;99298.47;8445375;28;20155;-81
2022/06/26 07:22:09;;;;;;;13.18;6.75;;;;;;;23.99;55.92;99299.28;8454187;28;20046;-81
2022/06/26 07:26:10;;;;;;;13.57;5.75;;;;;;;24.12;55.27;99301.63;8460803;28;20259;-82
2022/06/26 07:30:12;;;;;;;11.98;6.43;;;;;;;24.26;54.85;99301.66;8452521;28;20052;-80
2022/06/26 07:34:13;;;;;;;12.27;5.93;;;;;;;24.38;53.76;99298.47;8442141;28;20436;-81
2022/06/26 07:38:17;;;;;;;13.93;5.97;;;;;;;24.49;53.83;99293.75;8455515;28;20035;-83
2022/06/26 07:42:18;;;;;;;12.27;5.38;;;;;;;24.68;52.77;99293.31;8465282;28;20092;-80
2022/06/26 07:46:19;;;;;;;12.23;5.45;;;;;;;24.77;51.65;99301.19;8468748;28;20479;-80
2022/06/26 07:50:20;;;;;;;10.80;5.60;;;;;;;24.91;51.71;99286.56;8425585;28;20051;-82
2022/06/26 07:54:21;;;;;;;9.70;5.28;;;;;;;25.07;51.36;99289.66;8465637;28;20048;-80
2022/06/26 07:58:22;;;;;;;11.40;5.20;;;;;;;25.23;50.15;99298.28;8461158;28;20070;-82
2022/06/26 08:02:23;;;;;;;9.13;4.82;;;;;;;25.36;49.33;99296.63;8459875;28;20054;-80
2022/06/26 08:06:24;;;;;;;18.42;5.25;;;;;;;25.51;48.34;99298.13;8466922;28;20040;-81
2022/06/26 08:10:28;;;;;;;11.30;4.85;;;;;;;25.65;47.92;99298.06;8462683;28;20414;-82
2022/06/26 08:14:29;;;;;;;9.02;4.53;;;;;;;25.83;47.38;99291.63;8458822;28;20462;-81
2022/06/26 08:18:30;;;;;;;8.27;4.63;;;;;;;25.96;46.79;99301.03;8466481;28;20031;-81
2022/06/26 08:22:31;;;;;;;6.97;4.65;;;;;;;26.13;46.12;99289.00;8466389;28;20039;-78
2022/06/26 08:26:32;;;;;;;12.85;4.63;;;;;;;26.32;45.13;99290.47;8405540;28;20121;-78
2022/06/26 08:30:38;;;;;;;5.43;4.43;;;;;;;26.52;44.35;99298.97;8454559;28;20086;-82
2022/06/26 08:34:39;;;;;;;10.32;4.55;;;;;;;26.69;44.11;99303.56;8395729;28;20046;-80
2022/06/26 08:38:40;;;;;;;9.02;4.88;;;;;;;26.84;43.66;99296.66;8462149;28;20080;-79
2022/06/26 08:42:42;;;;;;;10.98;4.50;;;;;;;27.02;43.40;99305.56;8463124;28;20526;-78
2022/06/26 08:46:44;;;;;;;11.60;3.75;;;;;;;27.11;42.38;99303.09;8465727;28;20460;-78
2022/06/26 08:50:45;;;;;;;12.35;4.18;;;;;;;27.25;42.03;99302.91;8467124;28;20179;-78
2022/06/26 08:54:50;;;;;;;8.60;3.95;;;;;;;27.42;41.56;99294.78;8464061;28;20153;-78
2022/06/26 08:58:51;;;;;;;5.57;3.72;;;;;;;27.59;40.42;99293.78;8466242;28;20142;-80
2022/06/26 09:02:51;;;;;;;9.73;3.83;;;;;;;27.73;40.97;99285.22;8468001;27;20046;-78
2022/06/26 09:06:53;;;;;;;8.07;2.90;;;;;;;27.94;38.67;99298.78;8466012;28;20130;-80
2022/06/26 09:10:54;;;;;;;5.18;2.80;;;;;;;28.01;38.05;99304.22;8479153;27;20130;-78
2022/06/26 09:14:57;;;;;;;8.82;3.30;;;;;;;28.16;37.68;99295.69;8465760;28;20441;-80
2022/06/26 09:19:09;;;;;;;4.28;2.78;;;;;;;28.26;36.57;99297.50;8466416;28;20055;-79
2022/06/26 09:23:10;;;;;;;8.55;3.85;;;;;;;28.45;36.51;99288.41;8420370;28;20039;-81
2022/06/26 09:27:15;;;;;;;7.63;3.08;;;;;;;28.57;35.92;99301.69;8462549;28;20052;-78
2022/06/26 09:31:21;;;;;;;5.18;3.42;;;;;;;28.69;35.62;99298.31;8465682;27;20047;-78
2022/06/26 09:35:22;;;;;;;9.82;3.15;;;;;;;28.82;35.45;99296.47;8462489;28;20048;-79
2022/06/26 09:39:24;;;;;;;4.50;2.88;;;;;;;28.83;34.59;99286.94;8454680;28;20040;-77
2022/06/26 09:43:35;;;;;;;7.63;3.30;;;;;;;28.93;34.69;99291.50;8463216;28;20569;-77
2022/06/26 09:47:39;;;;;;;9.75;2.72;;;;;;;29.07;34.14;99298.00;8464906;28;20051;-76
2022/06/26 09:51:40;;;;;;;4.70;2.72;;;;;;;29.18;34.26;99290.22;8455711;28;20108;-77
2022/06/26 09:55:41;;;;;;;3.08;2.50;;;;;;;29.34;32.84;99298.66;8463888;27;20434;-77
2022/06/26 09:59:42;;;;;;;6.40;2.60;;;;;;;29.51;32.69;99294.66;8464047;27;20068;-77
2022/06/26 10:08:10;;;;;;;6.10;2.83;;;;;;;29.70;31.77;99299.41;8459969;28;20109;-77
2022/06/26 10:12:13;;;;;;;3.80;2.58;;;;;;;29.82;32.44;99283.25;8462993;28;20107;-79
2022/06/26 10:16:35;;;;;;;5.43;2.75;;;;;;;29.86;32.33;99283.94;8433700;28;20134;-79
2022/06/26 10:20:37;;;;;;;10.32;2.78;;;;;;;30.03;32.68;99291.13;8454583;28;20089;-80
2022/06/26 10:25:08;;;;;;;4.88;2.88;;;;;;;29.99;31.90;99282.84;8462353;28;20027;-78
2022/06/26 10:29:09;;;;;;;7.55;3.15;;;;;;;30.06;32.07;99281.88;8408340;28;20109;-78
2022/06/26 10:33:14;;;;;;;4.90;3.05;;;;;;;30.26;32.42;99279.78;8425031;28;20503;-78
2022/06/26 10:37:15;;;;;;;5.80;3.20;;;;;;;30.39;32.92;99277.84;8424405;28;20039;-79
2022/06/26 10:45:40;;;;;;;15.30;3.67;;;;;;;30.65;32.45;99283.56;8412033;28;20044;-80
2022/06/26 10:50:21;;;;;;;7.10;3.15;;;;;;;30.58;31.16;99290.91;8424981;28;20067;-80
2022/06/26 10:54:29;;;;;;;4.95;3.10;;;;;;;30.63;30.35;99286.78;8338335;28;20049;-78
2022/06/26 10:58:38;;;;;;;3.38;2.65;;;;;;;30.71;30.09;99281.81;8352116;28;20065;-80
2022/06/26 11:02:46;;;;;;;8.07;3.35;;;;;;;30.82;30.86;99287.88;8330341;28;20136;-79
2022/06/26 11:06:47;;;;;;;3.72;2.83;;;;;;;30.89;30.85;99282.09;8406671;28;20045;-79
2022/06/26 11:10:48;;;;;;;7.07;3.20;;;;;;;31.04;31.16;99283.25;8422029;28;20431;-79
2022/06/26 11:14:49;;;;;;;9.68;3.08;;;;;;;31.11;30.03;99277.50;8401603;28;20051;-80
2022/06/26 11:18:50;;;;;;;9.35;3.40;;;;;;;31.16;31.33;99274.16;8404536;28;20075;-79
2022/06/26 11:22:51;;;;;;;7.38;3.72;;;;;;;31.24;31.30;99269.94;8417901;28;20040;-80
2022/06/26 11:26:54;;;;;;;6.78;3.15;;;;;;;31.31;31.16;99280.09;8422682;28;20495;-82
2022/06/26 11:30:56;;;;;;;5.22;3.15;;;;;;;31.18;31.36;99268.91;8424325;28;20513;-81
2022/06/26 11:34:57;;;;;;;4.00;2.75;;;;;;;31.52;32.59;99261.91;8442058;28;20047;-80
2022/06/26 11:38:59;;;;;;;4.93;3.42;;;;;;;31.78;31.89;99274.66;8459194;28;20055;-81
2022/06/26 11:43:01;;;;;;;8.93;3.20;;;;;;;31.86;30.83;99270.41;8460066;28;20056;-79
2022/06/26 11:47:02;;;;;;;4.55;3.00;;;;;;;31.87;31.14;99266.41;8460763;28;20441;-77
2022/06/26 11:51:03;;;;;;;6.18;3.28;;;;;;;32.08;31.31;99262.91;8448457;28;20071;-81
2022/06/26 11:55:04;;;;;;;4.47;3.33;;;;;;;32.12;30.64;99271.97;8444317;28;20065;-80
2022/06/26 11:59:05;;;;;;;6.88;3.47;;;;;;;32.21;31.00;99260.09;8447597;28;20619;-80
2022/06/26 12:03:06;;;;;;;4.00;3.17;;;;;;;32.32;30.52;99262.53;8445262;28;20066;-80
2022/06/26 12:07:08;;;;;;;4.40;3.30;;;;;;;32.43;30.88;99257.34;8449072;28;20492;-82
2022/06/26 12:11:09;;;;;;;6.85;3.35;;;;;;;32.50;30.49;99268.28;8431339;28;20047;-80
2022/06/26 12:15:15;;;;;;;5.80;3.80;;;;;;;32.46;30.22;99262.03;8439129;28;20050;-81
2022/06/26 12:19:16;;;;;;;10.13;3.38;;;;;;;32.68;29.95;99257.25;8434566;28;20048;-80
2022/06/26 12:23:18;;;;;;;5.25;3.60;;;;;;;32.61;29.63;99260.31;8454654;28;20055;-79
2022/06/26 12:27:21;;;;;;;6.78;3.45;;;;;;;32.66;29.33;99254.16;8451803;28;20058;-81
2022/06/26 12:31:22;;;;;;;7.60;3.33;;;;;;;32.81;29.94;99266.38;8433430;28;20131;-82
2022/06/26 12:35:24;;;;;;;7.00;3.53;;;;;;;33.01;29.69;99255.63;8425898;28;20043;-81
2022/06/26 12:39:25;;;;;;;6.38;3.35;;;;;;;33.02;30.41;99260.00;8457047;28;20047;-81
2022/06/26 12:43:26;;;;;;;5.20;3.10;;;;;;;33.17;30.42;99265.06;8412556;28;20043;-82
2022/06/26 12:47:27;;;;;;;7.85;3.75;;;;;;;33.20;29.86;99255.78;8459589;28;20071;-79
2022/06/26 12:51:28;;;;;;;5.30;3.13;;;;;;;33.25;29.92;99266.38;8457414;28;20047;-81
2022/06/26 12:55:29;;;;;;;7.18;3.53;;;;;;;33.21;27.72;99254.53;8457817;28;20039;-80
2022/06/26 12:59:31;;;;;;;6.10;3.25;;;;;;;33.23;28.75;99254.84;8443891;28;20048;-78
2022/06/26 13:03:33;;;;;;;7.75;3.78;;;;;;;33.34;29.14;99258.03;8439313;28;20402;-80
2022/06/26 13:07:34;;;;;;;8.15;3.53;;;;;;;33.45;29.02;99247.19;8452003;28;20071;-81
2022/06/26 13:11:37;;;;;;;4.25;3.25;;;;;;;33.64;28.90;99243.22;8464409;28;20051;-80
2022/06/26 13:15:38;;;;;;;8.18;3.65;;;;;;;33.57;28.11;99243.50;8443037;28;20126;-80
2022/06/26 13:19:39;;;;;;;9.23;3.25;;;;;;;33.50;28.15;99238.19;8455817;28;20051;-80
2022/06/26 13:23:40;;;;;;;5.95;3.00;;;;;;;33.58;28.25;99250.66;8454127;28;20134;-80
2022/06/26 13:27:41;;;;;;;9.88;3.50;;;;;;;33.67;28.53;99242.31;8455500;28;20056;-80
2022/06/26 13:31:42;;;;;;;4.93;3.40;;;;;;;33.77;28.37;99252.31;8433360;28;20047;-80
2022/06/26 13:35:44;;;;;;;4.65;3.78;;;;;;;33.64;27.58;99243.22;8453889;28;20048;-79
2022/06/26 13:39:45;;;;;;;7.88;3.55;;;;;;;34.53;27.30;99239.53;8452964;28;20060;-78
2022/06/26 13:43:47;;;;;;;7.05;3.40;;;;;;;35.65;26.41;99245.97;8443314;28;20825;-80
2022/06/26 13:47:48;;;;;;;5.95;3.70;;;;;;;37.39;25.37;99246.16;8450487;28;20546;-79
2022/06/26 13:51:49;;;;;;;7.30;3.40;;;;;;;38.18;24.80;99260.19;8456842;28;20048;-79
2022/06/26 13:55:50;;;;;;;8.30;3.40;;;;;;;37.98;23.82;99247.59;8461825;28;20063;-79
2022/06/26 13:59:52;;;;;;;5.32;3.63;;;;;;;37.99;23.84;99260.44;8463368;28;20415;-79
2022/06/26 14:03:53;;;;;;;5.78;3.25;;;;;;;36.25;25.50;99257.84;8459524;28;20044;-79
2022/06/26 14:07:54;;;;;;;6.80;3.20;;;;;;;37.72;24.18;99255.16;8462763;28;20078;-81
2022/06/26 14:11:55;;;;;;;3.42;2.95;;;;;;;39.11;22.39;99253.31;8451956;28;20066;-81
2022/06/26 14:15:56;;;;;;;5.15;3.00;;;;;;;40.16;21.69;99256.13;8453397;28;20040;-80
2022/06/26 14:20:00;;;;;;;7.07;3.13;;;;;;;41.16;20.42;99258.50;8462453;28;20045;-81
2022/06/26 14:28:21;;;;;;;8.77;3.33;;;;;;;40.81;20.92;99256.13;8461661;28;20054;-79
2022/06/26 14:32:24;;;;;;;6.97;3.35;;;;;;;41.64;19.94;99252.56;8448806;28;20112;-81
2022/06/26 14:36:25;;;;;;;4.90;3.30;;;;;;;42.02;19.75;99248.91;8457320;28;20059;-80
2022/06/26 14:40:27;;;;;;;5.05;3.00;;;;;;;42.45;19.63;99252.09;8459068;28;20495;-81
2022/06/26 14:44:27;;;;;;;6.00;3.70;;;;;;;42.78;19.27;99247.56;8461811;28;20050;-86
2022/06/26 14:48:29;;;;;;;5.00;3.30;;;;;;;42.13;19.34;99243.19;8456299;28;20396;-81
2022/06/26 14:52:30;;;;;;;4.35;3.30;;;;;;;41.04;20.75;99249.22;8452770;28;20126;-81
2022/06/26 14:56:31;;;;;;;5.13;3.30;;;;;;;39.83;22.03;99238.97;8443357;28;20040;-81
2022/06/26 15:00:33;;;;;;;9.20;3.35;;;;;;;39.81;22.44;99235.91;8453575;28;20047;-81
2022/06/26 15:04:34;;;;;;;6.25;4.00;;;;;;;39.30;23.11;99234.72;8442385;28;20062;-81
2022/06/26 15:08:36;;;;;;;6.20;3.30;;;;;;;39.04;23.59;99233.97;8461031;28;20051;-83
2022/06/26 15:12:37;;;;;;;4.72;3.20;;;;;;;38.83;23.41;99231.19;8451437;28;20077;-83
2022/06/26 15:16:39;;;;;;;4.68;3.28;;;;;;;38.77;23.71;99233.19;8462023;28;20058;-81
2022/06/26 15:20:40;;;;;;;3.88;3.20;;;;;;;39.17;22.83;99231.53;8460509;28;20407;-83
2022/06/26 15:24:41;;;;;;;6.28;3.40;;;;;;;39.98;21.71;99236.72;8428790;28;20068;-80
2022/06/26 15:28:42;;;;;;;4.68;2.97;;;;;;;40.37;21.52;99234.88;8450837;28;20052;-84
2022/06/26 15:32:43;;;;;;;5.82;3.38;;;;;;;38.99;22.55;99231.88;8456718;28;20120;-82
2022/06/26 15:36:44;;;;;;;4.22;3.03;;;;;;;37.34;24.26;99232.78;8459975;28;20520;-80
2022/06/26 15:40:45;;;;;;;5.15;3.60;;;;;;;36.47;25.54;99228.63;8456229;28;20051;-82
2022/06/26 15:44:46;;;;;;;8.38;3.95;;;;;;;35.84;26.87;99244.66;8461066;28;20055;-80
2022/06/26 15:48:47;;;;;;;3.97;3.45;;;;;;;35.92;26.92;99240.25;8458842;28;20039;-82
2022/06/26 15:52:48;;;;;;;3.80;3.25;;;;;;;35.89;27.07;99230.75;8460527;28;20134;-82
2022/06/26 15:56:49;;;;;;;8.63;3.95;;;;;;;35.24;27.60;99231.50;8438171;28;20140;-81
2022/06/26 16:00:50;;;;;;;6.40;3.50;;;;;;;35.03;27.88;99227.63;8461462;28;20044;-82
2022/06/26 16:04:51;;;;;;;5.88;3.88;;;;;;;34.68;27.78;99229.22;8464882;28;20130;-83
2022/06/26 16:08:52;;;;;;;4.95;3.40;;;;;;;34.68;28.21;99224.44;8467346;28;20055;-84
2022/06/26 16:12:53;;;;;;;5.20;3.50;;;;;;;34.49;28.38;99222.84;8466973;28;20138;-82
2022/06/26 16:16:54;;;;;;;4.85;3.60;;;;;;;34.36;29.09;99218.66;8457432;28;20040;-82
2022/06/26 16:20:56;;;;;;;5.78;3.45;;;;;;;34.10;29.49;99218.16;8456786;28;20092;-82
2022/06/26 16:29:18;;;;;;;5.70;3.85;;;;;;;34.82;27.92;99216.59;8446656;28;20452;-82
2022/06/26 16:33:19;;;;;;;6.88;3.72;;;;;;;34.42;28.35;99217.56;8453052;28;20048;-82
2022/06/26 16:37:20;;;;;;;7.35;4.10;;;;;;;34.05;29.35;99207.56;8465623;28;20044;-83
2022/06/26 16:41:21;;;;;;;6.65;3.70;;;;;;;33.56;29.71;99208.34;8465700;28;20031;-82
2022/06/26 16:45:22;;;;;;;8.18;4.00;;;;;;;33.45;29.73;99213.59;8465054;28;20047;-84
2022/06/26 16:49:23;;;;;;;5.20;3.72;;;;;;;34.10;28.77;99206.94;8452218;28;20097;-81
2022/06/26 16:53:25;;;;;;;9.52;3.72;;;;;;;34.15;28.76;99203.50;8463142;28;20498;-81
2022/06/26 16:57:27;;;;;;;8.18;3.90;;;;;;;34.35;28.20;99206.66;8460956;28;20101;-81
2022/06/26 17:01:28;;;;;;;10.55;3.40;;;;;;;33.88;28.86;99204.25;8461734;28;20036;-81
2022/06/26 17:05:29;;;;;;;4.40;3.35;;;;;;;33.40;29.66;99211.41;8463844;28;20047;-82
2022/06/26 17:09:30;;;;;;;6.70;3.50;;;;;;;32.92;30.72;99205.22;8452028;28;20572;-80
2022/06/26 17:13:32;;;;;;;4.60;3.45;;;;;;;32.51;31.50;99208.34;8458737;28;20040;-81
2022/06/26 17:17:33;;;;;;;6.57;3.70;;;;;;;32.28;31.83;99207.53;8465607;27;20044;-83
2022/06/26 17:21:34;;;;;;;5.47;3.28;;;;;;;32.08;31.94;99207.03;8465565;28;20047;-85
2022/06/26 17:25:36;;;;;;;5.18;3.30;;;;;;;31.92;31.94;99206.41;8455979;28;20059;-84
2022/06/26 17:29:37;;;;;;;4.50;3.25;;;;;;;31.66;32.60;99211.25;8437366;28;20346;-88
2022/06/26 17:33:38;;;;;;;8.75;3.42;;;;;;;31.42;32.58;99208.78;8460434;28;20043;-88
2022/06/26 17:37:39;;;;;;;8.07;3.20;;;;;;;31.27;32.49;99224.41;8463579;28;20039;-86
2022/06/26 17:41:40;;;;;;;3.90;3.20;;;;;;;31.07;32.71;99221.03;8463134;28;20551;-87
2022/06/26 17:45:42;;;;;;;5.38;3.50;;;;;;;31.06;32.86;99230.63;8462960;28;20047;-90
2022/06/26 17:49:42;;;;;;;7.97;3.50;;;;;;;30.87;33.92;99226.00;8462956;28;20456;-88
2022/06/26 17:53:43;;;;;;;7.95;3.90;;;;;;;30.73;33.64;99229.16;8462483;28;20426;-91
2022/06/26 17:57:45;;;;;;;5.75;3.50;;;;;;;30.63;33.64;99233.81;8463700;28;20067;-86
2022/06/26 18:01:49;;;;;;;11.10;3.83;;;;;;;30.42;34.23;99232.38;8456775;28;20499;-89
2022/06/26 18:05:50;;;;;;;4.93;3.58;;;;;;;30.36;34.24;99236.91;8451591;28;20043;-88
2022/06/26 18:09:53;;;;;;;10.05;3.30;;;;;;;30.24;35.11;99243.22;8462877;28;20419;-88
2022/06/26 18:13:54;;;;;;;5.95;3.45;;;;;;;30.09;35.67;99242.00;8460913;28;20051;-90
2022/06/26 18:17:55;;;;;;;9.30;3.35;;;;;;;29.92;36.33;99248.84;8460048;28;20036;-89
2022/06/26 18:21:56;;;;;;;7.10;3.53;;;;;;;29.68;36.89;99257.31;8458679;28;20093;-88
2022/06/26 18:25:57;;;;;;;6.05;3.78;;;;;;;29.46;37.23;99256.22;8452835;28;20048;-87
2022/06/26 18:29:58;;;;;;;36.15;4.75;;;;;;;29.31;37.84;99260.53;8457627;28;20047;-89
2022/06/26 18:34:00;;;;;;;10.90;3.97;;;;;;;29.06;38.54;99260.28;8458610;28;20051;-89
2022/06/26 18:38:01;;;;;;;14.13;3.70;;;;;;;28.86;39.29;99265.84;8424888;28;20366;-89
2022/06/26 18:42:02;;;;;;;12.52;4.13;;;;;;;28.66;40.76;99265.78;8403296;28;20036;-88
2022/06/26 18:46:03;;;;;;;5.88;3.72;;;;;;;28.46;41.48;99273.31;8457126;28;20051;-89
2022/06/26 18:50:06;;;;;;;9.50;4.30;;;;;;;28.31;42.33;99267.25;8458332;28;20044;-89
2022/06/26 18:54:07;;;;;;;7.55;3.55;;;;;;;28.11;42.83;99269.97;8449246;28;20108;-86
2022/06/26 18:58:09;;;;;;;6.93;3.33;;;;;;;27.90;43.38;99281.41;8449547;28;20054;-88
2022/06/26 19:02:10;;;;;;;9.82;3.70;;;;;;;27.67;44.01;99273.03;8452153;28;20044;-89
2022/06/26 19:06:11;;;;;;;7.00;3.90;;;;;;;27.45;44.83;99285.59;8458460;28;20051;-84
2022/06/26 19:10:12;;;;;;;9.30;3.53;;;;;;;27.19;45.09;99287.94;8454568;28;20414;-81
2022/06/26 19:18:33;;;;;;;7.47;3.88;;;;;;;26.75;46.54;99296.38;8449606;28;20400;-83